X  Sluiten METAR luchtvaart weer gegevens         EBOS Ostend-Bruges International Airport
Temperatuur
18°C Temperatuur
13°C Dauwpunt
73% Vochtigheid



Wind
21 MPH
33 KM/U
9 M/S
18 KTS



260°
W
Huidig weer

Mostly Sunny Grotendeels zonnig
Luchtdruk 1017 (hPa) - 30.03 (inHg)
Zicht 30 (mijl) - 48 (km)
Vliegveld
Vliegveld code EBOS

Locatie : Ostend-Bruges International Airport
Afstand: 60 (mi)

Metar:
METAR EBOS 161150Z 26018KT 9999 FEW028 18/13 Q1017 NOSIG

Tijd: 16-05-2022 13:50 CEST